createdAt,value
2023-01-17T00:02:24.000Z,18.56
2023-01-17T00:07:24.000Z,19.98
2023-01-17T00:12:24.000Z,19.67
2023-01-17T00:17:24.000Z,19.32
2023-01-17T00:27:24.000Z,19.41
2023-01-17T00:32:25.000Z,20.13
2023-01-17T00:37:24.000Z,19.25
2023-01-17T00:42:24.000Z,19.84
2023-01-17T00:47:24.000Z,20.18
2023-01-17T00:52:24.000Z,19.35
2023-01-17T00:57:24.000Z,18.92
2023-01-17T01:02:25.000Z,20.61
2023-01-17T01:07:24.000Z,20.77
2023-01-17T01:12:25.000Z,18.25
2023-01-17T01:17:24.000Z,19.5
2023-01-17T01:22:24.000Z,18.97
2023-01-17T01:27:25.000Z,18.58
2023-01-17T01:32:24.000Z,20.45
2023-01-17T01:37:24.000Z,19.4
2023-01-17T01:42:24.000Z,19.82
2023-01-17T01:47:24.000Z,20.06
2023-01-17T01:52:24.000Z,19.93
2023-01-17T01:57:24.000Z,20.85
2023-01-17T02:02:24.000Z,19.38
2023-01-17T02:07:25.000Z,21.02
2023-01-17T02:12:24.000Z,20.57
2023-01-17T02:17:25.000Z,21.47
2023-01-17T02:22:25.000Z,21.42
2023-01-17T02:27:24.000Z,21.44
2023-01-17T02:32:24.000Z,22.05
2023-01-17T02:37:25.000Z,22.09
2023-01-17T02:42:24.000Z,22.7
2023-01-17T02:47:24.000Z,20.78
2023-01-17T02:52:24.000Z,20.96
2023-01-17T02:57:25.000Z,21.99
2023-01-17T03:02:24.000Z,20.86
2023-01-17T03:07:25.000Z,18.98
2023-01-17T03:12:24.000Z,18.98
2023-01-17T03:17:25.000Z,19.45
2023-01-17T03:22:24.000Z,19.45
2023-01-17T03:37:24.000Z,19.5
2023-01-17T03:42:25.000Z,18.83
2023-01-17T03:47:24.000Z,19.8
2023-01-17T03:52:24.000Z,20.8
2023-01-17T03:57:24.000Z,19.87
2023-01-17T04:02:24.000Z,18.43
2023-01-17T04:07:24.000Z,19.27
2023-01-17T04:12:25.000Z,18.42
2023-01-17T04:17:24.000Z,18.5
2023-01-17T04:22:24.000Z,20.15
2023-01-17T04:27:25.000Z,20.57
2023-01-17T04:32:24.000Z,19.24
2023-01-17T04:37:25.000Z,18.85
2023-01-17T04:42:24.000Z,18.79
2023-01-17T04:47:25.000Z,20.29
2023-01-17T04:52:24.000Z,20.32
2023-01-17T04:57:25.000Z,19.32
2023-01-17T05:02:24.000Z,20.48
2023-01-17T05:07:25.000Z,20.91
2023-01-17T05:12:24.000Z,19.8
2023-01-17T05:17:25.000Z,19.21
2023-01-17T05:22:24.000Z,18.18
2023-01-17T05:27:25.000Z,16.47
2023-01-17T05:32:24.000Z,19.59
2023-01-17T05:37:25.000Z,17.76
2023-01-17T05:42:24.000Z,19
2023-01-17T05:47:24.000Z,18.79
2023-01-17T05:52:24.000Z,18.03
2023-01-17T05:57:25.000Z,18.44
2023-01-17T06:02:25.000Z,16.75
2023-01-17T06:07:25.000Z,17.85
2023-01-17T06:12:24.000Z,18.96
2023-01-17T06:17:25.000Z,18.73
2023-01-17T06:22:24.000Z,18.64
2023-01-17T06:27:25.000Z,17.6
2023-01-17T06:32:24.000Z,17.1
2023-01-17T06:37:25.000Z,16.73
2023-01-17T06:42:24.000Z,17.69
2023-01-17T06:47:24.000Z,16.95
2023-01-17T06:52:25.000Z,17.59
2023-01-17T06:57:24.000Z,17.75
2023-01-17T07:02:24.000Z,17.74
2023-01-17T07:07:25.000Z,18.29
2023-01-17T07:12:24.000Z,17.55
2023-01-17T07:17:25.000Z,17.93
2023-01-17T07:22:24.000Z,17.24
2023-01-17T07:27:24.000Z,15.97
2023-01-17T07:32:24.000Z,17.37
2023-01-17T07:37:24.000Z,18.13
2023-01-17T07:42:25.000Z,16.78
2023-01-17T07:47:24.000Z,18.18
2023-01-17T07:52:24.000Z,18.83
2023-01-17T07:57:24.000Z,18.92
2023-01-17T08:02:24.000Z,19.54
2023-01-17T08:07:25.000Z,19.8
2023-01-17T08:12:24.000Z,19.51
2023-01-17T08:17:24.000Z,19.32
2023-01-17T08:22:24.000Z,21.66
2023-01-17T08:27:24.000Z,21.71
2023-01-17T08:32:25.000Z,22.02
2023-01-17T08:37:24.000Z,21.83
2023-01-17T08:42:25.000Z,21.04
2023-01-17T08:47:24.000Z,22.96
2023-01-17T08:52:25.000Z,25.09
2023-01-17T08:57:24.000Z,25.06
2023-01-17T09:02:25.000Z,23.63
2023-01-17T09:07:24.000Z,24
2023-01-17T09:12:25.000Z,24.91
2023-01-17T09:17:25.000Z,26.07
2023-01-17T09:22:25.000Z,23.99
2023-01-17T09:27:25.000Z,24.89
2023-01-17T09:32:24.000Z,24.4
2023-01-17T09:37:25.000Z,23.24
2023-01-17T09:42:24.000Z,24.2
2023-01-17T09:47:25.000Z,22.53
2023-01-17T09:52:24.000Z,22.44
2023-01-17T09:57:24.000Z,23.95
2023-01-17T10:02:24.000Z,23.09
2023-01-17T10:07:24.000Z,23.56
2023-01-17T10:12:24.000Z,23.84
2023-01-17T10:17:25.000Z,23.92
2023-01-17T10:22:25.000Z,23.78
2023-01-17T10:27:24.000Z,23.89
2023-01-17T10:32:24.000Z,24.19
2023-01-17T10:37:25.000Z,25.09
2023-01-17T10:42:24.000Z,23.61
2023-01-17T10:47:25.000Z,25.49
2023-01-17T10:52:25.000Z,26.72
2023-01-17T10:57:25.000Z,26.08
2023-01-17T11:02:24.000Z,27.45
2023-01-17T11:07:25.000Z,27.03
2023-01-17T11:12:24.000Z,28.07
2023-01-17T11:17:24.000Z,28.3
2023-01-17T11:22:24.000Z,28.58
2023-01-17T11:32:25.000Z,27.61
2023-01-17T11:37:24.000Z,25.85
2023-01-17T11:42:24.000Z,27.14
2023-01-17T11:47:25.000Z,26.76
2023-01-17T11:52:24.000Z,26.24
2023-01-17T11:57:24.000Z,28.79
2023-01-17T12:02:24.000Z,26.61
2023-01-17T12:07:24.000Z,25.09
2023-01-17T12:12:24.000Z,25.91
2023-01-17T12:17:24.000Z,24.41
2023-01-17T12:22:24.000Z,26.78
2023-01-17T12:27:25.000Z,25.15
2023-01-17T12:32:24.000Z,26.29
2023-01-17T12:37:24.000Z,22.6
2023-01-17T12:42:24.000Z,25.34
2023-01-17T12:47:24.000Z,26.6
2023-01-17T12:52:24.000Z,24.7
2023-01-17T12:57:24.000Z,24.8
2023-01-17T13:02:25.000Z,23.48
2023-01-17T13:07:24.000Z,24.92
2023-01-17T13:12:24.000Z,24.26
2023-01-17T13:17:24.000Z,23.58
2023-01-17T13:22:25.000Z,23.59
2023-01-17T13:32:24.000Z,23.3
2023-01-17T13:37:25.000Z,22.78
2023-01-17T13:42:24.000Z,22.11
2023-01-17T13:47:24.000Z,21.77
2023-01-17T13:52:24.000Z,22.19
2023-01-17T13:57:24.000Z,24.08
2023-01-17T14:02:24.000Z,21.98
2023-01-17T14:07:25.000Z,22.15
2023-01-17T14:12:24.000Z,22.51
2023-01-17T14:17:24.000Z,22.87
2023-01-17T14:22:24.000Z,23.25
2023-01-17T14:27:24.000Z,23.56
2023-01-17T14:32:24.000Z,23.2
2023-01-17T14:37:24.000Z,22.74
2023-01-17T14:42:24.000Z,22.81
2023-01-17T14:47:25.000Z,22.7
2023-01-17T14:52:24.000Z,22.85
2023-01-17T14:57:24.000Z,21.92
2023-01-17T15:02:25.000Z,21.18
2023-01-17T15:07:24.000Z,23.06
2023-01-17T15:12:25.000Z,22.77
2023-01-17T15:17:24.000Z,22.17
2023-01-17T15:27:25.000Z,22
2023-01-17T15:32:24.000Z,21.36
2023-01-17T15:37:24.000Z,24.1
2023-01-17T15:42:24.000Z,21.59
2023-01-17T15:47:24.000Z,22.09
2023-01-17T15:52:24.000Z,23.45
2023-01-17T15:57:24.000Z,21.04
2023-01-17T16:02:25.000Z,24.06
2023-01-17T16:07:24.000Z,22.08
2023-01-17T16:12:24.000Z,23.91
2023-01-17T16:17:24.000Z,20.23
2023-01-17T16:22:24.000Z,21.27
2023-01-17T16:27:25.000Z,23.41
2023-01-17T16:32:24.000Z,20.71
2023-01-17T16:37:25.000Z,21.08
2023-01-17T16:47:25.000Z,19.18
2023-01-17T16:52:24.000Z,19.79
2023-01-17T16:57:24.000Z,20.49
2023-01-17T17:02:25.000Z,20.72
2023-01-17T17:07:24.000Z,23.91
2023-01-17T17:12:24.000Z,22.81
2023-01-17T17:17:24.000Z,22.72
2023-01-17T17:22:24.000Z,22.28
2023-01-17T17:27:24.000Z,23.16
2023-01-17T17:32:25.000Z,21.9
2023-01-17T17:37:24.000Z,19.97
2023-01-17T17:42:25.000Z,21.13
2023-01-17T17:47:24.000Z,22.76
2023-01-17T17:52:24.000Z,20.27
2023-01-17T17:57:25.000Z,20.85
2023-01-17T18:02:24.000Z,20.23
2023-01-17T18:07:25.000Z,21.29
2023-01-17T18:12:24.000Z,18.81
2023-01-17T18:17:24.000Z,18.55
2023-01-17T18:22:24.000Z,20.5
2023-01-17T18:32:25.000Z,17.35
2023-01-17T18:37:24.000Z,20.67
2023-01-17T18:42:25.000Z,19.52
2023-01-17T18:47:24.000Z,17.29
2023-01-17T18:52:25.000Z,18.12
2023-01-17T18:57:24.000Z,19.43
2023-01-17T19:02:25.000Z,16.87
2023-01-17T19:07:24.000Z,18.71
2023-01-17T19:12:25.000Z,18.75
2023-01-17T19:17:24.000Z,18.24
2023-01-17T19:22:24.000Z,17.77
2023-01-17T19:27:24.000Z,18.04
2023-01-17T19:32:25.000Z,16.95
2023-01-17T19:42:24.000Z,16.13
2023-01-17T19:47:24.000Z,16.49
2023-01-17T19:52:25.000Z,20.39
2023-01-17T19:57:24.000Z,17.99
2023-01-17T20:02:25.000Z,19.24
2023-01-17T20:07:24.000Z,18.46
2023-01-17T20:12:24.000Z,18.31
2023-01-17T20:17:24.000Z,18.54
2023-01-17T20:22:24.000Z,18.56
2023-01-17T20:27:24.000Z,19.99
2023-01-17T20:32:24.000Z,18.66
2023-01-17T20:37:25.000Z,18.6
2023-01-17T20:42:24.000Z,19.16
2023-01-17T20:47:25.000Z,18.02
2023-01-17T20:52:24.000Z,18.4
2023-01-17T20:57:24.000Z,23.32
2023-01-17T21:02:25.000Z,18.71
2023-01-17T21:07:24.000Z,20.89
2023-01-17T21:12:24.000Z,19.02
2023-01-17T21:17:25.000Z,19.99
2023-01-17T21:22:25.000Z,19.17
2023-01-17T21:27:24.000Z,21.28
2023-01-17T21:32:25.000Z,22.96
2023-01-17T21:37:24.000Z,21.22
2023-01-17T21:42:24.000Z,18.42
2023-01-17T21:47:24.000Z,19.94
2023-01-17T21:52:24.000Z,20.32
2023-01-17T21:57:24.000Z,20.02
2023-01-17T22:02:24.000Z,20.89
2023-01-17T22:07:24.000Z,20.58
2023-01-17T22:12:24.000Z,17.76
2023-01-17T22:17:24.000Z,20.98
2023-01-17T22:22:25.000Z,19.36
2023-01-17T22:27:24.000Z,22.39
2023-01-17T22:32:24.000Z,20.57
2023-01-17T22:37:24.000Z,20.21
2023-01-17T22:42:25.000Z,20.9
2023-01-17T22:47:24.000Z,22.08
2023-01-17T22:52:25.000Z,19.02
2023-01-17T22:57:24.000Z,18.96
2023-01-17T23:02:24.000Z,17.76
2023-01-17T23:07:24.000Z,18.11
2023-01-17T23:12:24.000Z,15.93
2023-01-17T23:17:24.000Z,15.31
2023-01-17T23:22:24.000Z,18.2
2023-01-17T23:27:24.000Z,16.18
2023-01-17T23:32:25.000Z,18.86
2023-01-17T23:37:24.000Z,21.19
2023-01-17T23:42:25.000Z,18.74
2023-01-17T23:47:24.000Z,19.94
2023-01-17T23:52:24.000Z,20.52
2023-01-17T23:57:24.000Z,21.05
